sensor_id;sensor_type;location;lat;lon;timestamp;P1;P2;P0
64229;PMS5003;50547;49.498;0.092;2024-01-10T11:07:22;29;25;
64229;PMS5003;50547;49.498;0.092;2024-01-10T11:09:51;29;25;
64229;PMS5003;50547;49.498;0.092;2024-01-10T11:12:26;29;25;
64229;PMS5003;50547;49.498;0.092;2024-01-10T11:15:06;28;24;
64229;PMS5003;50547;49.498;0.092;2024-01-10T11:17:52;27;23;
64229;PMS5003;50547;49.498;0.092;2024-01-10T11:20:42;27;23;
64229;PMS5003;50547;49.498;0.092;2024-01-10T11:23:28;26;23;
64229;PMS5003;50547;49.498;0.092;2024-01-10T11:26:06;27;23;
64229;PMS5003;50547;49.498;0.092;2024-01-10T11:28:36;26;23;
64229;PMS5003;50547;49.498;0.092;2024-01-10T11:31:05;29;25;
64229;PMS5003;50547;49.498;0.092;2024-01-10T11:33:34;28;24;
64229;PMS5003;50547;49.498;0.092;2024-01-10T11:36:06;27;23;
64229;PMS5003;50547;49.498;0.092;2024-01-10T11:38:40;27;23;
64229;PMS5003;50547;49.498;0.092;2024-01-10T11:41:10;28;24;
64229;PMS5003;50547;49.498;0.092;2024-01-10T11:43:40;28;24;
64229;PMS5003;50547;49.498;0.092;2024-01-10T11:46:08;28;24;
64229;PMS5003;50547;49.498;0.092;2024-01-10T11:48:37;30;26;
64229;PMS5003;50547;49.498;0.092;2024-01-10T11:51:06;28;24;
64229;PMS5003;50547;49.498;0.092;2024-01-10T11:53:37;29;25;
64229;PMS5003;50547;49.498;0.092;2024-01-10T11:56:08;28;24;
64229;PMS5003;50547;49.498;0.092;2024-01-10T11:58:51;29;25;
64229;PMS5003;50547;49.498;0.092;2024-01-10T12:01:21;29;25;
64229;PMS5003;50547;49.498;0.092;2024-01-10T12:03:51;28;24;
64229;PMS5003;50547;49.498;0.092;2024-01-10T12:06:20;28;24;
64229;PMS5003;50547;49.498;0.092;2024-01-10T12:08:50;27;23;
64229;PMS5003;50547;49.498;0.092;2024-01-10T12:11:18;30;26;
64229;PMS5003;50547;49.498;0.092;2024-01-10T12:13:47;30;26;
64229;PMS5003;50547;49.498;0.092;2024-01-10T12:16:15;26;23;
64229;PMS5003;50547;49.498;0.092;2024-01-10T12:18:44;26;23;
64229;PMS5003;50547;49.498;0.092;2024-01-10T12:21:13;29;25;
64229;PMS5003;50547;49.498;0.092;2024-01-10T12:23:42;26;23;
64229;PMS5003;50547;49.498;0.092;2024-01-10T12:26:11;27;23;
64229;PMS5003;50547;49.498;0.092;2024-01-10T12:28:40;28;24;
64229;PMS5003;50547;49.498;0.092;2024-01-10T12:31:09;27;23;
64229;PMS5003;50547;49.498;0.092;2024-01-10T12:33:38;29;25;
64229;PMS5003;50547;49.498;0.092;2024-01-10T12:36:07;27;23;
64229;PMS5003;50547;49.498;0.092;2024-01-10T12:38:38;26;23;
64229;PMS5003;50547;49.498;0.092;2024-01-10T12:41:07;27;23;
64229;PMS5003;50547;49.498;0.092;2024-01-10T12:43:36;27;23;
64229;PMS5003;50547;49.498;0.092;2024-01-10T12:46:05;25;22;
64229;PMS5003;50547;49.498;0.092;2024-01-10T12:48:35;25;22;
64229;PMS5003;50547;49.498;0.092;2024-01-10T12:51:04;25;22;
64229;PMS5003;50547;49.498;0.092;2024-01-10T12:53:30;25;22;
64229;PMS5003;50547;49.498;0.092;2024-01-10T12:56:00;24;21;
64229;PMS5003;50547;49.498;0.092;2024-01-10T12:58:29;25;22;
64229;PMS5003;50547;49.498;0.092;2024-01-10T13:00:58;24;21;
64229;PMS5003;50547;49.498;0.092;2024-01-10T13:03:27;23;20;
64229;PMS5003;50547;49.498;0.092;2024-01-10T13:05:56;26;23;
64229;PMS5003;50547;49.498;0.092;2024-01-10T13:08:25;25;22;
64229;PMS5003;50547;49.498;0.092;2024-01-10T13:10:54;25;22;
64229;PMS5003;50547;49.498;0.092;2024-01-10T13:13:23;25;22;
64229;PMS5003;50547;49.498;0.092;2024-01-10T13:15:52;22;19;
64229;PMS5003;50547;49.498;0.092;2024-01-10T13:18:21;24;21;
64229;PMS5003;50547;49.498;0.092;2024-01-10T13:20:51;23;20;
64229;PMS5003;50547;49.498;0.092;2024-01-10T13:23:20;23;20;
64229;PMS5003;50547;49.498;0.092;2024-01-10T13:25:49;22;19;
64229;PMS5003;50547;49.498;0.092;2024-01-10T13:28:19;23;20;
64229;PMS5003;50547;49.498;0.092;2024-01-10T13:30:48;23;20;
64229;PMS5003;50547;49.498;0.092;2024-01-10T13:33:17;23;20;
64229;PMS5003;50547;49.498;0.092;2024-01-10T13:35:46;25;22;
64229;PMS5003;50547;49.498;0.092;2024-01-10T13:38:15;24;21;
64229;PMS5003;50547;49.498;0.092;2024-01-10T13:40:44;25;22;
64229;PMS5003;50547;49.498;0.092;2024-01-10T13:43:13;26;23;
64229;PMS5003;50547;49.498;0.092;2024-01-10T13:45:42;26;23;
64229;PMS5003;50547;49.498;0.092;2024-01-10T13:48:11;24;21;
64229;PMS5003;50547;49.498;0.092;2024-01-10T13:50:40;25;22;
64229;PMS5003;50547;49.498;0.092;2024-01-10T13:53:09;24;21;
64229;PMS5003;50547;49.498;0.092;2024-01-10T13:55:58;23;20;
64229;PMS5003;50547;49.498;0.092;2024-01-10T13:58:27;23;20;
64229;PMS5003;50547;49.498;0.092;2024-01-10T14:00:56;24;21;
64229;PMS5003;50547;49.498;0.092;2024-01-10T14:03:25;23;20;
64229;PMS5003;50547;49.498;0.092;2024-01-10T14:05:54;24;21;
64229;PMS5003;50547;49.498;0.092;2024-01-10T14:08:23;24;21;
64229;PMS5003;50547;49.498;0.092;2024-01-10T14:10:52;25;22;
64229;PMS5003;50547;49.498;0.092;2024-01-10T14:13:21;23;20;
64229;PMS5003;50547;49.498;0.092;2024-01-10T14:15:49;23;20;
64229;PMS5003;50547;49.498;0.092;2024-01-10T14:18:18;23;20;
64229;PMS5003;50547;49.498;0.092;2024-01-10T14:20:57;23;20;
64229;PMS5003;50547;49.498;0.092;2024-01-10T14:23:26;23;20;
64229;PMS5003;50547;49.498;0.092;2024-01-10T14:25:55;23;20;
64229;PMS5003;50547;49.498;0.092;2024-01-10T14:28:24;23;20;
64229;PMS5003;50547;49.498;0.092;2024-01-10T14:30:54;23;20;
64229;PMS5003;50547;49.498;0.092;2024-01-10T14:33:23;23;20;
64229;PMS5003;50547;49.498;0.092;2024-01-10T14:35:52;23;20;
64229;PMS5003;50547;49.498;0.092;2024-01-10T14:38:21;23;20;
64229;PMS5003;50547;49.498;0.092;2024-01-10T14:40:50;28;24;
64229;PMS5003;50547;49.498;0.092;2024-01-10T14:43:24;25;22;
64229;PMS5003;50547;49.498;0.092;2024-01-10T14:45:53;24;21;
64229;PMS5003;50547;49.498;0.092;2024-01-10T14:48:22;23;20;
64229;PMS5003;50547;49.498;0.092;2024-01-10T14:50:51;26;23;
64229;PMS5003;50547;49.498;0.092;2024-01-10T14:53:20;35;30;
64229;PMS5003;50547;49.498;0.092;2024-01-10T14:55:49;31;27;
64229;PMS5003;50547;49.498;0.092;2024-01-10T14:58:18;28;24;
64229;PMS5003;50547;49.498;0.092;2024-01-10T15:00:45;36;31;
64229;PMS5003;50547;49.498;0.092;2024-01-10T15:03:14;24;21;
64229;PMS5003;50547;49.498;0.092;2024-01-10T15:05:44;23;20;
64229;PMS5003;50547;49.498;0.092;2024-01-10T15:08:13;23;20;
64229;PMS5003;50547;49.498;0.092;2024-01-10T15:10:42;23;20;
64229;PMS5003;50547;49.498;0.092;2024-01-10T15:13:11;23;20;
64229;PMS5003;50547;49.498;0.092;2024-01-10T15:15:40;22;19;
64229;PMS5003;50547;49.498;0.092;2024-01-10T15:18:09;22;19;
64229;PMS5003;50547;49.498;0.092;2024-01-10T15:20:38;22;19;
64229;PMS5003;50547;49.498;0.092;2024-01-10T15:23:07;22;19;
64229;PMS5003;50547;49.498;0.092;2024-01-10T15:25:37;23;20;
64229;PMS5003;50547;49.498;0.092;2024-01-10T15:28:06;23;20;
64229;PMS5003;50547;49.498;0.092;2024-01-10T15:30:35;23;20;
64229;PMS5003;50547;49.498;0.092;2024-01-10T15:33:00;23;20;
64229;PMS5003;50547;49.498;0.092;2024-01-10T15:35:30;23;20;
64229;PMS5003;50547;49.498;0.092;2024-01-10T15:37:59;23;20;
64229;PMS5003;50547;49.498;0.092;2024-01-10T15:40:28;23;20;
64229;PMS5003;50547;49.498;0.092;2024-01-10T15:42:57;23;20;
64229;PMS5003;50547;49.498;0.092;2024-01-10T15:45:26;24;21;
64229;PMS5003;50547;49.498;0.092;2024-01-10T15:47:55;24;21;
64229;PMS5003;50547;49.498;0.092;2024-01-10T15:50:24;24;21;
64229;PMS5003;50547;49.498;0.092;2024-01-10T15:52:53;24;21;
64229;PMS5003;50547;49.498;0.092;2024-01-10T15:55:22;23;20;
64229;PMS5003;50547;49.498;0.092;2024-01-10T15:57:51;23;20;
64229;PMS5003;50547;49.498;0.092;2024-01-10T16:00:20;23;20;
64229;PMS5003;50547;49.498;0.092;2024-01-10T16:02:49;23;20;
64229;PMS5003;50547;49.498;0.092;2024-01-10T16:05:17;23;20;
64229;PMS5003;50547;49.498;0.092;2024-01-10T16:07:46;24;21;
64229;PMS5003;50547;49.498;0.092;2024-01-10T16:10:15;24;21;
64229;PMS5003;50547;49.498;0.092;2024-01-10T16:12:44;25;22;
64229;PMS5003;50547;49.498;0.092;2024-01-10T16:15:13;23;20;
64229;PMS5003;50547;49.498;0.092;2024-01-10T16:17:43;24;21;
64229;PMS5003;50547;49.498;0.092;2024-01-10T16:20:12;25;22;
64229;PMS5003;50547;49.498;0.092;2024-01-10T16:22:41;25;22;
64229;PMS5003;50547;49.498;0.092;2024-01-10T16:25:10;23;20;
64229;PMS5003;50547;49.498;0.092;2024-01-10T16:27:39;25;22;
64229;PMS5003;50547;49.498;0.092;2024-01-10T16:30:08;25;22;
64229;PMS5003;50547;49.498;0.092;2024-01-10T16:32:38;24;21;
64229;PMS5003;50547;49.498;0.092;2024-01-10T16:35:07;24;21;
64229;PMS5003;50547;49.498;0.092;2024-01-10T16:37:36;26;23;
64229;PMS5003;50547;49.498;0.092;2024-01-10T16:40:06;27;23;
64229;PMS5003;50547;49.498;0.092;2024-01-10T16:42:35;23;20;
64229;PMS5003;50547;49.498;0.092;2024-01-10T16:45:05;26;23;
64229;PMS5003;50547;49.498;0.092;2024-01-10T16:47:34;24;21;
64229;PMS5003;50547;49.498;0.092;2024-01-10T16:50:03;25;22;
64229;PMS5003;50547;49.498;0.092;2024-01-10T16:52:33;26;23;
64229;PMS5003;50547;49.498;0.092;2024-01-10T16:55:02;25;22;
64229;PMS5003;50547;49.498;0.092;2024-01-10T16:57:32;27;23;
64229;PMS5003;50547;49.498;0.092;2024-01-10T17:00:01;26;23;
64229;PMS5003;50547;49.498;0.092;2024-01-10T17:02:30;29;25;
64229;PMS5003;50547;49.498;0.092;2024-01-10T17:04:59;29;25;
64229;PMS5003;50547;49.498;0.092;2024-01-10T17:07:28;28;24;
64229;PMS5003;50547;49.498;0.092;2024-01-10T17:09:57;29;25;
64229;PMS5003;50547;49.498;0.092;2024-01-10T17:12:26;29;25;
64229;PMS5003;50547;49.498;0.092;2024-01-10T17:14:55;30;26;
64229;PMS5003;50547;49.498;0.092;2024-01-10T17:17:24;29;25;
64229;PMS5003;50547;49.498;0.092;2024-01-10T17:19:53;29;25;
64229;PMS5003;50547;49.498;0.092;2024-01-10T17:22:22;33;28;
64229;PMS5003;50547;49.498;0.092;2024-01-10T17:24:51;33;28;
64229;PMS5003;50547;49.498;0.092;2024-01-10T17:27:21;33;28;
64229;PMS5003;50547;49.498;0.092;2024-01-10T17:29:50;30;26;
64229;PMS5003;50547;49.498;0.092;2024-01-10T17:32:19;30;26;
64229;PMS5003;50547;49.498;0.092;2024-01-10T17:34:48;34;29;
64229;PMS5003;50547;49.498;0.092;2024-01-10T17:37:17;33;28;
64229;PMS5003;50547;49.498;0.092;2024-01-10T17:39:46;30;26;
64229;PMS5003;50547;49.498;0.092;2024-01-10T17:42:15;30;26;
64229;PMS5003;50547;49.498;0.092;2024-01-10T17:44:40;33;28;
64229;PMS5003;50547;49.498;0.092;2024-01-10T17:47:10;30;26;
64229;PMS5003;50547;49.498;0.092;2024-01-10T17:49:39;27;23;
64229;PMS5003;50547;49.498;0.092;2024-01-10T17:52:08;29;25;
64229;PMS5003;50547;49.498;0.092;2024-01-10T17:54:37;29;25;
64229;PMS5003;50547;49.498;0.092;2024-01-10T17:57:06;30;26;
64229;PMS5003;50547;49.498;0.092;2024-01-10T17:59:35;31;27;
64229;PMS5003;50547;49.498;0.092;2024-01-10T18:02:01;30;26;
64229;PMS5003;50547;49.498;0.092;2024-01-10T18:04:30;33;28;
64229;PMS5003;50547;49.498;0.092;2024-01-10T18:06:59;33;28;
64229;PMS5003;50547;49.498;0.092;2024-01-10T18:09:28;34;29;
64229;PMS5003;50547;49.498;0.092;2024-01-10T18:12:02;33;28;
64229;PMS5003;50547;49.498;0.092;2024-01-10T18:14:32;32;28;
64229;PMS5003;50547;49.498;0.092;2024-01-10T18:17:02;32;28;
64229;PMS5003;50547;49.498;0.092;2024-01-10T18:19:31;30;26;
64229;PMS5003;50547;49.498;0.092;2024-01-10T18:22:00;30;26;
64229;PMS5003;50547;49.498;0.092;2024-01-10T18:24:29;31;27;
64229;PMS5003;50547;49.498;0.092;2024-01-10T18:26:58;33;28;
64229;PMS5003;50547;49.498;0.092;2024-01-10T18:29:27;31;27;
64229;PMS5003;50547;49.498;0.092;2024-01-10T18:31:56;31;27;
64229;PMS5003;50547;49.498;0.092;2024-01-10T18:34:25;31;27;
64229;PMS5003;50547;49.498;0.092;2024-01-10T18:36:54;31;27;
64229;PMS5003;50547;49.498;0.092;2024-01-10T18:39:23;31;27;
64229;PMS5003;50547;49.498;0.092;2024-01-10T18:41:52;31;27;
64229;PMS5003;50547;49.498;0.092;2024-01-10T18:44:21;32;28;
64229;PMS5003;50547;49.498;0.092;2024-01-10T18:46:50;35;30;
64229;PMS5003;50547;49.498;0.092;2024-01-10T18:49:19;35;30;
64229;PMS5003;50547;49.498;0.092;2024-01-10T18:51:48;37;33;
64229;PMS5003;50547;49.498;0.092;2024-01-10T18:54:17;35;30;
64229;PMS5003;50547;49.498;0.092;2024-01-10T18:56:46;36;31;
64229;PMS5003;50547;49.498;0.092;2024-01-10T18:59:15;74;63;
64229;PMS5003;50547;49.498;0.092;2024-01-10T19:01:44;34;29;
64229;PMS5003;50547;49.498;0.092;2024-01-10T19:04:13;35;30;
64229;PMS5003;50547;49.498;0.092;2024-01-10T19:06:42;34;29;
64229;PMS5003;50547;49.498;0.092;2024-01-10T19:09:12;34;29;
64229;PMS5003;50547;49.498;0.092;2024-01-10T19:11:41;34;29;
64229;PMS5003;50547;49.498;0.092;2024-01-10T19:14:10;36;31;
64229;PMS5003;50547;49.498;0.092;2024-01-10T19:16:39;36;31;
64229;PMS5003;50547;49.498;0.092;2024-01-10T19:19:08;34;29;
64229;PMS5003;50547;49.498;0.092;2024-01-10T19:21:37;35;30;
64229;PMS5003;50547;49.498;0.092;2024-01-10T19:24:06;37;33;
64229;PMS5003;50547;49.498;0.092;2024-01-10T19:26:35;36;31;
64229;PMS5003;50547;49.498;0.092;2024-01-10T19:29:04;37;33;
64229;PMS5003;50547;49.498;0.092;2024-01-10T19:31:34;37;33;
64229;PMS5003;50547;49.498;0.092;2024-01-10T19:34:03;36;31;
64229;PMS5003;50547;49.498;0.092;2024-01-10T19:36:32;36;31;
64229;PMS5003;50547;49.498;0.092;2024-01-10T19:39:01;37;33;
64229;PMS5003;50547;49.498;0.092;2024-01-10T19:41:30;38;35;
64229;PMS5003;50547;49.498;0.092;2024-01-10T19:43:59;37;33;
64229;PMS5003;50547;49.498;0.092;2024-01-10T19:46:28;38;35;
64229;PMS5003;50547;49.498;0.092;2024-01-10T19:48:57;36;31;
64229;PMS5003;50547;49.498;0.092;2024-01-10T19:51:26;38;35;
64229;PMS5003;50547;49.498;0.092;2024-01-10T19:53:55;37;33;
64229;PMS5003;50547;49.498;0.092;2024-01-10T19:56:21;35;30;
64229;PMS5003;50547;49.498;0.092;2024-01-10T19:58:50;35;30;
64229;PMS5003;50547;49.498;0.092;2024-01-10T20:01:19;37;33;
64229;PMS5003;50547;49.498;0.092;2024-01-10T20:03:48;37;33;
64229;PMS5003;50547;49.498;0.092;2024-01-10T20:06:17;37;33;
64229;PMS5003;50547;49.498;0.092;2024-01-10T20:08:46;37;33;
64229;PMS5003;50547;49.498;0.092;2024-01-10T20:11:15;42;40;
64229;PMS5003;50547;49.498;0.092;2024-01-10T20:13:44;38;35;
64229;PMS5003;50547;49.498;0.092;2024-01-10T20:16:13;37;33;
64229;PMS5003;50547;49.498;0.092;2024-01-10T20:18:42;37;33;
64229;PMS5003;50547;49.498;0.092;2024-01-10T20:21:13;37;33;
64229;PMS5003;50547;49.498;0.092;2024-01-10T20:23:42;37;33;
64229;PMS5003;50547;49.498;0.092;2024-01-10T20:26:12;37;33;
64229;PMS5003;50547;49.498;0.092;2024-01-10T20:28:41;34;29;
64229;PMS5003;50547;49.498;0.092;2024-01-10T20:31:10;35;30;
64229;PMS5003;50547;49.498;0.092;2024-01-10T20:33:39;36;31;
64229;PMS5003;50547;49.498;0.092;2024-01-10T20:36:08;36;31;
64229;PMS5003;50547;49.498;0.092;2024-01-10T20:38:37;35;30;
64229;PMS5003;50547;49.498;0.092;2024-01-10T20:41:06;34;29;
64229;PMS5003;50547;49.498;0.092;2024-01-10T20:43:35;37;33;
64229;PMS5003;50547;49.498;0.092;2024-01-10T20:46:04;35;30;
64229;PMS5003;50547;49.498;0.092;2024-01-10T20:48:33;35;30;
64229;PMS5003;50547;49.498;0.092;2024-01-10T20:51:03;34;29;
64229;PMS5003;50547;49.498;0.092;2024-01-10T20:53:32;34;29;
64229;PMS5003;50547;49.498;0.092;2024-01-10T20:56:01;32;28;
64229;PMS5003;50547;49.498;0.092;2024-01-10T20:58:35;32;28;
64229;PMS5003;50547;49.498;0.092;2024-01-10T21:01:04;34;29;
64229;PMS5003;50547;49.498;0.092;2024-01-10T21:03:33;34;29;
64229;PMS5003;50547;49.498;0.092;2024-01-10T21:06:02;35;30;
64229;PMS5003;50547;49.498;0.092;2024-01-10T21:08:31;34;29;
64229;PMS5003;50547;49.498;0.092;2024-01-10T21:11:01;34;29;
64229;PMS5003;50547;49.498;0.092;2024-01-10T21:13:30;34;29;
64229;PMS5003;50547;49.498;0.092;2024-01-10T21:15:59;31;27;
64229;PMS5003;50547;49.498;0.092;2024-01-10T21:18:28;41;38;
64229;PMS5003;50547;49.498;0.092;2024-01-10T21:20:57;36;31;
64229;PMS5003;50547;49.498;0.092;2024-01-10T21:23:26;40;36;
64229;PMS5003;50547;49.498;0.092;2024-01-10T21:25:55;38;35;
64229;PMS5003;50547;49.498;0.092;2024-01-10T21:28:25;38;35;
64229;PMS5003;50547;49.498;0.092;2024-01-10T21:30:54;38;35;
64229;PMS5003;50547;49.498;0.092;2024-01-10T21:33:23;34;29;
64229;PMS5003;50547;49.498;0.092;2024-01-10T21:35:52;30;26;
64229;PMS5003;50547;49.498;0.092;2024-01-10T21:38:21;34;29;
64229;PMS5003;50547;49.498;0.092;2024-01-10T21:40:50;32;28;
64229;PMS5003;50547;49.498;0.092;2024-01-10T21:43:19;35;30;
64229;PMS5003;50547;49.498;0.092;2024-01-10T21:45:48;33;28;
64229;PMS5003;50547;49.498;0.092;2024-01-10T21:48:17;34;29;
64229;PMS5003;50547;49.498;0.092;2024-01-10T21:50:46;31;27;
64229;PMS5003;50547;49.498;0.092;2024-01-10T21:53:15;35;30;
64229;PMS5003;50547;49.498;0.092;2024-01-10T21:55:44;34;29;
64229;PMS5003;50547;49.498;0.092;2024-01-10T21:58:13;32;28;
64229;PMS5003;50547;49.498;0.092;2024-01-10T22:00:43;35;30;
64229;PMS5003;50547;49.498;0.092;2024-01-10T22:03:12;31;27;
64229;PMS5003;50547;49.498;0.092;2024-01-10T22:05:41;32;28;
64229;PMS5003;50547;49.498;0.092;2024-01-10T22:08:06;34;29;
64229;PMS5003;50547;49.498;0.092;2024-01-10T22:10:36;34;29;
64229;PMS5003;50547;49.498;0.092;2024-01-10T22:13:05;35;30;
64229;PMS5003;50547;49.498;0.092;2024-01-10T22:15:34;30;26;
64229;PMS5003;50547;49.498;0.092;2024-01-10T22:18:03;31;27;
64229;PMS5003;50547;49.498;0.092;2024-01-10T22:20:33;31;27;
64229;PMS5003;50547;49.498;0.092;2024-01-10T22:23:02;34;29;
64229;PMS5003;50547;49.498;0.092;2024-01-10T22:25:31;34;29;
64229;PMS5003;50547;49.498;0.092;2024-01-10T22:28:00;34;29;
64229;PMS5003;50547;49.498;0.092;2024-01-10T22:30:34;34;29;
64229;PMS5003;50547;49.498;0.092;2024-01-10T22:33:03;35;30;
64229;PMS5003;50547;49.498;0.092;2024-01-10T22:35:32;34;29;
64229;PMS5003;50547;49.498;0.092;2024-01-10T22:38:02;34;29;
64229;PMS5003;50547;49.498;0.092;2024-01-10T22:40:31;34;29;
64229;PMS5003;50547;49.498;0.092;2024-01-10T22:43:00;32;28;
64229;PMS5003;50547;49.498;0.092;2024-01-10T22:45:29;35;30;
64229;PMS5003;50547;49.498;0.092;2024-01-10T22:47:58;34;29;
64229;PMS5003;50547;49.498;0.092;2024-01-10T22:50:27;35;30;
64229;PMS5003;50547;49.498;0.092;2024-01-10T22:52:56;34;29;
64229;PMS5003;50547;49.498;0.092;2024-01-10T22:55:25;34;29;
64229;PMS5003;50547;49.498;0.092;2024-01-10T22:57:54;32;28;
64229;PMS5003;50547;49.498;0.092;2024-01-10T23:00:23;34;29;
64229;PMS5003;50547;49.498;0.092;2024-01-10T23:02:52;33;28;
64229;PMS5003;50547;49.498;0.092;2024-01-10T23:05:21;34;29;
64229;PMS5003;50547;49.498;0.092;2024-01-10T23:07:50;34;29;
64229;PMS5003;50547;49.498;0.092;2024-01-10T23:10:19;34;29;
64229;PMS5003;50547;49.498;0.092;2024-01-10T23:12:48;34;29;
64229;PMS5003;50547;49.498;0.092;2024-01-10T23:15:17;34;29;
64229;PMS5003;50547;49.498;0.092;2024-01-10T23:17:46;34;29;
64229;PMS5003;50547;49.498;0.092;2024-01-10T23:20:15;34;29;
64229;PMS5003;50547;49.498;0.092;2024-01-10T23:22:44;35;30;
64229;PMS5003;50547;49.498;0.092;2024-01-10T23:25:18;33;28;
64229;PMS5003;50547;49.498;0.092;2024-01-10T23:27:47;35;30;
64229;PMS5003;50547;49.498;0.092;2024-01-10T23:30:16;35;30;
64229;PMS5003;50547;49.498;0.092;2024-01-10T23:32:46;34;29;
64229;PMS5003;50547;49.498;0.092;2024-01-10T23:35:15;35;30;
64229;PMS5003;50547;49.498;0.092;2024-01-10T23:37:44;34;29;
64229;PMS5003;50547;49.498;0.092;2024-01-10T23:40:13;34;29;
64229;PMS5003;50547;49.498;0.092;2024-01-10T23:42:42;34;29;
64229;PMS5003;50547;49.498;0.092;2024-01-10T23:45:11;34;29;
64229;PMS5003;50547;49.498;0.092;2024-01-10T23:47:40;34;29;
64229;PMS5003;50547;49.498;0.092;2024-01-10T23:50:09;34;29;
64229;PMS5003;50547;49.498;0.092;2024-01-10T23:52:38;34;29;
64229;PMS5003;50547;49.498;0.092;2024-01-10T23:55:07;34;29;
64229;PMS5003;50547;49.498;0.092;2024-01-10T23:57:36;34;29;
